Time;durP1;ratioP1;P1;durP2;ratioP2;P2;SDS_P1;SDS_P2;PMS_P1;PMS_P2;Temp;Humidity;BMP_temperature;BMP_pressure;BME280_temperature;BME280_humidity;BME280_pressure;Samples;Min_cycle;Max_cycle;Signal;HPM_P1;HPM_P2
2021/03/11 00:01:39;;;;;;;30.63;13.53;;;5.80;99.90;;;;;;4166392;28;20473;-52
2021/03/11 00:03:40;;;;;;;30.47;12.90;;;5.80;99.90;;;;;;4165765;28;20506;-52
2021/03/11 00:05:44;;;;;;;32.50;13.23;;;5.80;99.90;;;;;;4165745;28;20950;-53
2021/03/11 00:07:46;;;;;;;27.57;12.27;;;5.80;99.90;;;;;;4164978;28;20948;-53
2021/03/11 00:09:47;;;;;;;26.17;12.33;;;5.80;99.90;;;;;;4165955;28;21013;-52
2021/03/11 00:11:49;;;;;;;26.83;13.27;;;5.80;99.90;;;;;;4166575;28;20531;-52
2021/03/11 00:13:51;;;;;;;31.60;13.53;;;5.80;99.90;;;;;;4165396;28;20489;-52
2021/03/11 00:15:52;;;;;;;27.93;12.60;;;5.80;99.90;;;;;;4166025;28;20872;-52
2021/03/11 00:17:54;;;;;;;29.93;14.03;;;5.80;99.90;;;;;;4166170;28;20499;-52
2021/03/11 00:19:55;;;;;;;30.43;12.60;;;5.90;99.90;;;;;;4166653;28;20496;-52
2021/03/11 00:21:57;;;;;;;29.27;13.20;;;5.80;99.90;;;;;;4168022;28;20477;-52
2021/03/11 00:23:58;;;;;;;28.53;13.57;;;5.80;99.90;;;;;;4166764;28;20501;-52
2021/03/11 00:26:00;;;;;;;28.47;12.77;;;5.90;99.90;;;;;;4167028;28;20502;-52
2021/03/11 00:28:02;;;;;;;26.27;11.87;;;5.90;99.90;;;;;;4167053;28;20458;-52
2021/03/11 00:30:05;;;;;;;29.87;14.10;;;5.80;99.90;;;;;;4166568;28;20488;-52
2021/03/11 00:32:07;;;;;;;29.67;13.03;;;5.90;99.90;;;;;;4166298;28;21028;-52
2021/03/11 00:34:08;;;;;;;29.43;13.27;;;5.90;99.90;;;;;;4166417;28;20499;-52
2021/03/11 00:36:10;;;;;;;29.30;13.00;;;5.90;99.90;;;;;;4166314;28;20500;-52
2021/03/11 00:38:11;;;;;;;29.60;13.53;;;5.80;99.90;;;;;;4166556;28;21260;-52
2021/03/11 00:40:15;;;;;;;28.27;12.90;;;5.80;99.90;;;;;;4166270;28;20462;-53
2021/03/11 00:42:16;;;;;;;32.30;12.53;;;5.80;99.90;;;;;;4166441;28;20484;-52
2021/03/11 00:44:18;;;;;;;29.53;12.10;;;5.80;99.90;;;;;;4169045;28;21327;-52
2021/03/11 00:46:20;;;;;;;28.10;12.90;;;5.80;99.90;;;;;;4168025;28;20469;-52
2021/03/11 00:48:21;;;;;;;25.37;12.07;;;5.80;99.90;;;;;;4169583;28;20481;-52
2021/03/11 00:50:23;;;;;;;26.37;11.97;;;5.80;99.90;;;;;;4169569;28;20471;-52
2021/03/11 00:52:25;;;;;;;29.50;11.90;;;5.80;99.90;;;;;;4168017;28;20519;-52
2021/03/11 00:54:26;;;;;;;28.13;12.10;;;5.80;99.90;;;;;;4169684;28;20468;-52
2021/03/11 00:56:27;;;;;;;30.60;13.47;;;5.80;99.90;;;;;;4169821;28;20533;-52
2021/03/11 00:58:29;;;;;;;26.60;11.87;;;5.80;99.90;;;;;;4169176;28;20474;-52
2021/03/11 01:00:31;;;;;;;27.03;12.10;;;5.80;99.90;;;;;;4168512;28;20465;-52
2021/03/11 01:02:32;;;;;;;25.00;12.03;;;5.80;99.90;;;;;;4169119;28;20532;-52
2021/03/11 01:04:34;;;;;;;28.53;12.23;;;5.80;99.90;;;;;;4169150;28;21436;-52
2021/03/11 01:06:35;;;;;;;24.63;12.00;;;5.80;99.90;;;;;;4169015;28;20495;-52
2021/03/11 01:08:36;;;;;;;28.67;12.40;;;5.90;99.90;;;;;;4169639;28;21169;-52
2021/03/11 01:10:38;;;;;;;28.07;11.43;;;5.90;99.90;;;;;;4169737;28;21175;-52
2021/03/11 01:12:40;;;;;;;31.37;12.37;;;5.90;99.90;;;;;;4169225;28;20473;-52
2021/03/11 01:14:41;;;;;;;32.23;12.87;;;5.90;99.90;;;;;;4169773;28;20481;-52
2021/03/11 01:16:46;;;;;;;27.03;12.03;;;5.90;99.90;;;;;;4167975;28;20474;-53
2021/03/11 01:18:47;;;;;;;26.77;11.17;;;5.80;99.90;;;;;;4168396;28;20945;-52
2021/03/11 01:20:49;;;;;;;27.00;11.33;;;5.80;99.90;;;;;;4167816;28;20479;-52
2021/03/11 01:22:50;;;;;;;27.83;11.97;;;5.80;99.90;;;;;;4168592;28;20485;-52
2021/03/11 01:24:51;;;;;;;24.63;11.53;;;5.80;99.90;;;;;;4168236;28;20550;-53
2021/03/11 01:26:53;;;;;;;26.73;11.40;;;5.70;99.90;;;;;;4167940;28;20462;-52
2021/03/11 01:28:54;;;;;;;24.53;11.97;;;5.70;99.90;;;;;;4169611;28;20472;-52
2021/03/11 01:30:55;;;;;;;25.10;11.47;;;5.70;99.90;;;;;;4169753;28;20485;-52
2021/03/11 01:32:58;;;;;;;24.93;11.57;;;5.60;99.90;;;;;;4168188;28;20496;-52
2021/03/11 01:34:59;;;;;;;30.37;12.20;;;5.70;99.90;;;;;;4168786;28;20469;-52
2021/03/11 01:37:00;;;;;;;25.47;11.70;;;5.60;99.90;;;;;;4168884;28;21167;-52
2021/03/11 01:39:02;;;;;;;25.03;10.67;;;5.60;99.90;;;;;;4169040;28;20473;-52
2021/03/11 01:41:03;;;;;;;29.10;11.90;;;5.60;99.90;;;;;;4168537;28;20485;-52
2021/03/11 01:43:05;;;;;;;31.83;12.27;;;5.60;99.90;;;;;;4169205;28;20963;-52
2021/03/11 01:45:08;;;;;;;26.83;12.10;;;5.60;99.90;;;;;;4168958;28;20976;-53
2021/03/11 01:47:10;;;;;;;28.43;11.60;;;5.60;99.90;;;;;;4169046;28;20518;-52
2021/03/11 01:49:12;;;;;;;28.33;12.03;;;5.60;99.90;;;;;;4167799;28;20480;-52
2021/03/11 01:51:13;;;;;;;25.80;11.47;;;5.60;99.90;;;;;;4167797;28;20465;-52
2021/03/11 01:53:16;;;;;;;22.80;10.70;;;5.60;99.90;;;;;;4167914;28;20466;-52
2021/03/11 01:55:18;;;;;;;24.00;11.10;;;5.60;99.90;;;;;;4167243;28;20480;-53
2021/03/11 01:57:19;;;;;;;27.40;12.10;;;5.60;99.90;;;;;;4168546;28;20973;-50
2021/03/11 01:59:21;;;;;;;27.93;10.93;;;5.60;99.90;;;;;;4167766;28;20806;-50
2021/03/11 02:01:22;;;;;;;25.93;11.40;;;5.60;99.90;;;;;;4167779;28;20466;-50
2021/03/11 02:03:23;;;;;;;24.00;10.97;;;5.60;99.90;;;;;;4167801;28;20739;-51
2021/03/11 02:05:27;;;;;;;27.67;11.27;;;5.60;99.90;;;;;;4168892;28;20946;-51
2021/03/11 02:07:28;;;;;;;29.80;12.30;;;5.60;99.90;;;;;;4168196;28;20463;-51
2021/03/11 02:09:29;;;;;;;29.87;12.20;;;5.60;99.90;;;;;;4168494;28;20472;-51
2021/03/11 02:11:32;;;;;;;29.13;11.83;;;5.60;99.90;;;;;;4167718;28;20470;-51
2021/03/11 02:13:39;;;;;;;31.57;11.40;;;5.60;99.90;;;;;;4168085;28;20476;-51
2021/03/11 02:15:48;;;;;;;25.30;11.30;;;5.60;99.90;;;;;;4168379;28;20484;-51
2021/03/11 02:17:57;;;;;;;27.30;11.73;;;5.60;99.90;;;;;;4168527;28;20492;-51
2021/03/11 02:20:13;;;;;;;24.43;11.17;;;5.60;99.90;;;;;;4167307;28;20520;-50
2021/03/11 02:22:26;;;;;;;23.67;10.97;;;5.70;99.90;;;;;;4168070;28;20472;-56
2021/03/11 02:24:45;;;;;;;24.53;11.10;;;5.70;99.90;;;;;;4167933;28;20468;-51
2021/03/11 02:27:24;;;;;;;23.70;10.80;;;5.70;99.90;;;;;;4167652;28;21271;-51
2021/03/11 02:29:29;;;;;;;31.40;11.77;;;5.70;99.90;;;;;;4168609;28;20527;-51
2021/03/11 02:31:34;;;;;;;24.33;10.37;;;5.70;99.90;;;;;;4166813;28;20484;-51
2021/03/11 02:33:37;;;;;;;23.63;10.30;;;5.70;99.90;;;;;;4166894;28;20469;-51
2021/03/11 02:35:40;;;;;;;24.40;11.07;;;5.70;99.90;;;;;;4168029;28;20497;-51
2021/03/11 02:37:43;;;;;;;22.60;10.23;;;5.80;99.90;;;;;;4168237;28;20494;-51
2021/03/11 02:39:51;;;;;;;23.00;10.33;;;5.70;99.90;;;;;;4167774;28;20476;-50
2021/03/11 02:41:55;;;;;;;26.47;11.00;;;5.80;99.90;;;;;;4167374;28;20476;-50
2021/03/11 02:43:56;;;;;;;23.67;10.73;;;5.80;99.90;;;;;;4167334;28;20473;-51
2021/03/11 02:45:59;;;;;;;23.70;10.30;;;5.80;99.90;;;;;;4167171;28;21052;-51
2021/03/11 02:48:04;;;;;;;27.70;11.77;;;5.80;99.90;;;;;;4167642;28;20476;-50
2021/03/11 02:50:06;;;;;;;24.40;10.57;;;5.80;99.90;;;;;;4166366;28;20485;-50
2021/03/11 02:52:08;;;;;;;25.30;11.00;;;5.80;99.90;;;;;;4167820;28;20489;-50
2021/03/11 02:54:11;;;;;;;25.17;10.43;;;5.80;99.90;;;;;;4166972;28;20488;-50
2021/03/11 02:56:13;;;;;;;21.77;9.97;;;5.80;99.90;;;;;;4169239;28;20473;-51
2021/03/11 02:58:15;;;;;;;22.23;10.93;;;5.80;99.90;;;;;;4167484;28;20494;-51
2021/03/11 03:00:17;;;;;;;23.40;10.77;;;5.70;99.90;;;;;;4167634;28;20487;-51
2021/03/11 03:02:20;;;;;;;25.60;10.90;;;5.70;99.90;;;;;;4167135;28;21987;-51
2021/03/11 03:04:23;;;;;;;25.40;10.50;;;5.70;99.90;;;;;;4167064;28;20460;-51
2021/03/11 03:06:25;;;;;;;24.73;10.27;;;5.70;99.90;;;;;;4166696;28;20484;-51
2021/03/11 03:08:27;;;;;;;20.60;9.53;;;5.70;99.90;;;;;;4167309;28;20583;-51
2021/03/11 03:10:30;;;;;;;26.07;10.23;;;5.70;99.90;;;;;;4167231;28;20480;-51
2021/03/11 03:12:35;;;;;;;21.47;9.97;;;5.60;99.90;;;;;;4166276;28;20534;-51
2021/03/11 03:14:38;;;;;;;22.47;10.47;;;5.60;99.90;;;;;;4166927;28;20481;-52
2021/03/11 03:16:39;;;;;;;22.37;10.50;;;5.60;99.90;;;;;;4166358;28;20473;-51
2021/03/11 03:18:42;;;;;;;23.03;10.13;;;5.60;99.90;;;;;;4167180;28;20477;-51
2021/03/11 03:20:44;;;;;;;21.07;9.53;;;5.60;99.90;;;;;;4167203;28;20469;-51
2021/03/11 03:22:47;;;;;;;23.43;10.13;;;5.60;99.90;;;;;;4167193;28;20508;-51
2021/03/11 03:24:49;;;;;;;20.57;9.93;;;5.60;99.90;;;;;;4167459;28;20508;-50
2021/03/11 03:26:50;;;;;;;21.77;9.80;;;5.60;99.90;;;;;;4166579;28;20817;-51
2021/03/11 03:28:52;;;;;;;27.13;11.83;;;5.60;99.90;;;;;;4166652;28;20464;-51
2021/03/11 03:30:53;;;;;;;24.43;9.80;;;5.70;99.90;;;;;;4166060;28;20470;-51
2021/03/11 03:32:55;;;;;;;21.23;9.57;;;5.70;99.90;;;;;;4166941;28;20481;-51
2021/03/11 03:34:57;;;;;;;23.73;10.53;;;5.70;99.90;;;;;;4166793;28;20491;-51
2021/03/11 03:36:59;;;;;;;23.03;9.63;;;5.70;99.90;;;;;;4166621;28;21066;-51
2021/03/11 03:39:00;;;;;;;22.83;10.27;;;5.70;99.90;;;;;;4166655;28;20461;-51
2021/03/11 03:41:02;;;;;;;24.67;10.10;;;5.70;99.90;;;;;;4166105;28;20470;-51
2021/03/11 03:43:09;;;;;;;25.43;11.10;;;5.70;99.90;;;;;;4168002;28;20984;-51
2021/03/11 03:45:13;;;;;;;20.57;9.77;;;5.70;99.90;;;;;;4167071;28;20472;-51
2021/03/11 03:47:16;;;;;;;26.43;10.23;;;5.70;99.90;;;;;;4167567;28;20958;-51
2021/03/11 03:49:18;;;;;;;24.40;9.87;;;5.70;99.90;;;;;;4166592;28;20473;-51
2021/03/11 03:51:24;;;;;;;23.53;10.10;;;5.70;99.90;;;;;;4165838;28;20485;-51
2021/03/11 03:53:33;;;;;;;26.13;10.17;;;5.70;99.90;;;;;;4165952;28;20465;-51
2021/03/11 03:55:37;;;;;;;19.93;9.50;;;5.70;99.90;;;;;;4168159;28;20477;-51
2021/03/11 03:57:41;;;;;;;23.23;9.43;;;5.70;99.90;;;;;;4166572;28;21220;-51
2021/03/11 03:59:44;;;;;;;21.80;9.20;;;5.80;99.90;;;;;;4166611;28;20466;-51
2021/03/11 04:01:46;;;;;;;21.23;9.33;;;5.80;99.90;;;;;;4166843;28;20485;-51
2021/03/11 04:03:50;;;;;;;21.80;9.27;;;5.80;99.90;;;;;;4166254;28;20469;-51
2021/03/11 04:05:55;;;;;;;25.47;9.83;;;5.80;99.90;;;;;;4167311;28;20481;-51
2021/03/11 04:07:58;;;;;;;23.60;9.90;;;5.80;99.90;;;;;;4167136;28;20501;-51
2021/03/11 04:10:03;;;;;;;23.10;9.90;;;5.90;99.90;;;;;;4168011;28;20504;-51
2021/03/11 04:12:07;;;;;;;21.60;9.23;;;5.90;99.90;;;;;;4164575;28;20480;-53
2021/03/11 04:14:10;;;;;;;17.10;8.33;;;5.90;99.90;;;;;;4165956;28;20470;-51
2021/03/11 04:16:13;;;;;;;19.07;8.43;;;5.90;99.90;;;;;;4164777;28;20469;-51
2021/03/11 04:18:15;;;;;;;22.67;8.63;;;6.00;99.90;;;;;;4169462;28;20486;-51
2021/03/11 04:20:17;;;;;;;19.87;8.97;;;6.00;99.90;;;;;;4170061;28;20508;-50
2021/03/11 04:22:18;;;;;;;16.13;7.93;;;6.00;99.90;;;;;;4167663;28;20471;-51
2021/03/11 04:24:21;;;;;;;17.93;8.10;;;6.10;99.90;;;;;;4169532;28;20466;-51
2021/03/11 04:26:22;;;;;;;17.40;7.87;;;6.10;99.90;;;;;;4168972;28;20524;-51
2021/03/11 04:28:25;;;;;;;19.77;8.10;;;6.10;99.90;;;;;;4170047;28;20464;-51
2021/03/11 04:30:27;;;;;;;20.03;8.30;;;6.20;99.90;;;;;;4169875;28;20937;-52
2021/03/11 04:32:28;;;;;;;18.23;8.33;;;6.20;99.90;;;;;;4170373;28;20483;-52
2021/03/11 04:34:30;;;;;;;16.30;7.07;;;6.20;99.90;;;;;;4170535;28;20484;-51
2021/03/11 04:36:33;;;;;;;17.17;7.77;;;6.20;99.90;;;;;;4168713;28;20484;-51
2021/03/11 04:38:35;;;;;;;18.00;7.47;;;6.30;99.90;;;;;;4168786;28;20505;-51
2021/03/11 04:40:37;;;;;;;15.07;7.03;;;6.30;99.90;;;;;;4170824;28;20479;-51
2021/03/11 04:42:40;;;;;;;15.83;7.00;;;6.30;99.90;;;;;;4169368;28;20462;-51
2021/03/11 04:44:42;;;;;;;17.03;6.83;;;6.40;99.90;;;;;;4168980;28;21362;-51
2021/03/11 04:46:44;;;;;;;16.23;7.00;;;6.40;99.90;;;;;;4169215;28;20482;-51
2021/03/11 04:48:46;;;;;;;13.43;6.70;;;6.40;99.90;;;;;;4168072;28;20478;-51
2021/03/11 04:50:48;;;;;;;15.63;6.93;;;6.50;99.90;;;;;;4168906;28;20972;-51
2021/03/11 04:52:51;;;;;;;13.93;6.73;;;6.50;99.90;;;;;;4169873;28;21097;-51
2021/03/11 04:54:53;;;;;;;13.90;6.30;;;6.50;99.90;;;;;;4168664;28;20516;-51
2021/03/11 04:56:56;;;;;;;14.77;6.90;;;6.50;99.90;;;;;;4169076;28;21116;-51
2021/03/11 04:58:57;;;;;;;14.63;6.37;;;6.60;99.90;;;;;;4169847;28;20483;-51
2021/03/11 05:01:00;;;;;;;14.30;6.70;;;6.60;99.90;;;;;;4168532;28;20485;-54
2021/03/11 05:03:06;;;;;;;14.53;6.90;;;6.60;99.90;;;;;;4169939;28;21005;-51
2021/03/11 05:05:09;;;;;;;14.50;6.93;;;6.60;99.90;;;;;;4170099;28;20469;-52
2021/03/11 05:07:14;;;;;;;11.80;5.57;;;6.70;99.90;;;;;;4169132;28;20483;-51
2021/03/11 05:09:15;;;;;;;13.63;6.53;;;6.70;99.90;;;;;;4169827;28;20479;-51
2021/03/11 05:11:17;;;;;;;13.73;5.97;;;6.70;99.90;;;;;;4169994;28;20553;-51
2021/03/11 05:13:19;;;;;;;11.47;5.53;;;6.70;99.90;;;;;;4168666;28;20469;-51
2021/03/11 05:15:20;;;;;;;10.90;5.53;;;6.70;99.90;;;;;;4170025;28;20954;-51
2021/03/11 05:17:22;;;;;;;11.10;5.30;;;6.80;99.90;;;;;;4168437;28;20495;-51
2021/03/11 05:19:23;;;;;;;11.30;5.50;;;6.80;99.90;;;;;;4169505;28;20460;-51
2021/03/11 05:21:24;;;;;;;8.53;4.50;;;6.80;99.90;;;;;;4168488;28;20472;-51
2021/03/11 05:23:26;;;;;;;11.57;4.40;;;6.80;99.90;;;;;;4168330;28;21210;-51
2021/03/11 05:25:27;;;;;;;9.80;4.47;;;6.90;99.90;;;;;;4167887;28;20664;-51
2021/03/11 05:27:28;;;;;;;12.40;4.33;;;6.90;99.90;;;;;;4168971;28;20483;-51
2021/03/11 05:29:31;;;;;;;9.03;4.10;;;7.00;99.90;;;;;;4169235;28;20473;-51
2021/03/11 05:31:32;;;;;;;9.93;4.50;;;7.00;99.90;;;;;;4169486;28;20470;-51
2021/03/11 05:33:33;;;;;;;9.97;4.10;;;7.00;99.90;;;;;;4168607;28;20470;-51
2021/03/11 05:35:34;;;;;;;6.67;3.63;;;7.10;99.90;;;;;;4168293;28;20479;-51
2021/03/11 05:37:37;;;;;;;7.30;3.30;;;7.10;99.90;;;;;;4170038;28;20490;-51
2021/03/11 05:39:39;;;;;;;7.40;3.40;;;7.10;99.90;;;;;;4168527;28;20684;-51
2021/03/11 05:41:43;;;;;;;6.03;3.23;;;7.20;99.90;;;;;;4167913;28;20877;-51
2021/03/11 05:43:44;;;;;;;5.60;3.10;;;7.20;99.90;;;;;;4167785;28;20475;-51
2021/03/11 05:45:47;;;;;;;6.67;3.57;;;7.30;99.90;;;;;;4167826;28;20475;-51
2021/03/11 05:47:50;;;;;;;7.77;3.67;;;7.30;99.90;;;;;;4168621;28;20475;-51
2021/03/11 05:49:52;;;;;;;7.17;3.57;;;7.40;99.90;;;;;;4167117;28;20483;-51
2021/03/11 05:51:54;;;;;;;8.73;3.50;;;7.40;99.90;;;;;;4168954;28;20541;-51
2021/03/11 05:53:57;;;;;;;6.20;3.83;;;7.40;99.90;;;;;;4168344;28;20961;-51
2021/03/11 05:55:58;;;;;;;6.90;3.77;;;7.40;99.90;;;;;;4167608;28;20474;-51
2021/03/11 05:58:00;;;;;;;7.50;3.73;;;7.40;99.90;;;;;;4168900;28;20498;-51
2021/03/11 06:00:02;;;;;;;6.23;3.60;;;7.40;99.90;;;;;;4168255;28;20487;-51
2021/03/11 06:02:07;;;;;;;7.53;3.77;;;7.40;99.90;;;;;;4168584;28;20514;-51
2021/03/11 06:04:09;;;;;;;8.67;3.63;;;7.40;99.90;;;;;;4167231;28;20471;-51
2021/03/11 06:06:10;;;;;;;8.40;4.40;;;7.40;99.90;;;;;;4168953;28;20495;-51
2021/03/11 06:08:12;;;;;;;6.43;3.60;;;7.40;99.90;;;;;;4167796;28;20530;-51
2021/03/11 06:10:15;;;;;;;6.87;3.73;;;7.40;99.90;;;;;;4167221;28;20477;-51
2021/03/11 06:12:16;;;;;;;8.20;4.07;;;7.40;99.90;;;;;;4167208;28;20475;-51
2021/03/11 06:14:20;;;;;;;9.33;4.67;;;7.40;99.90;;;;;;4168345;28;20488;-51
2021/03/11 06:16:24;;;;;;;8.33;4.57;;;7.40;99.90;;;;;;4168464;28;20486;-51
2021/03/11 06:18:31;;;;;;;8.83;4.80;;;7.40;99.90;;;;;;4167119;28;20491;-51
2021/03/11 06:20:33;;;;;;;6.77;3.97;;;7.40;99.90;;;;;;4167989;28;20458;-51
2021/03/11 06:22:34;;;;;;;8.47;4.23;;;7.40;99.90;;;;;;4167173;28;20465;-51
2021/03/11 06:24:36;;;;;;;8.97;4.63;;;7.40;99.90;;;;;;4168644;28;20472;-51
2021/03/11 06:26:37;;;;;;;6.37;4.20;;;7.40;99.90;;;;;;4166977;28;20490;-51
2021/03/11 06:28:54;;;;;;;9.47;4.70;;;7.40;99.90;;;;;;4166345;28;20466;-51
2021/03/11 06:30:56;;;;;;;7.77;4.13;;;7.40;99.90;;;;;;4167454;28;20473;-51
2021/03/11 06:32:58;;;;;;;7.33;3.90;;;7.50;99.90;;;;;;4168297;28;20545;-52
2021/03/11 06:35:00;;;;;;;8.17;4.37;;;7.40;99.90;;;;;;4167171;28;20470;-51
2021/03/11 06:37:02;;;;;;;6.47;4.00;;;7.50;99.90;;;;;;4168277;28;20467;-51
2021/03/11 06:39:23;;;;;;;6.60;4.00;;;7.50;99.90;;;;;;4168533;28;20468;-51
2021/03/11 06:41:25;;;;;;;7.30;3.67;;;7.50;99.90;;;;;;4166760;28;20959;-52
2021/03/11 06:43:26;;;;;;;6.67;3.93;;;7.50;99.90;;;;;;4167838;28;20478;-52
2021/03/11 06:45:28;;;;;;;6.30;3.23;;;7.60;99.90;;;;;;4167557;28;20468;-52
2021/03/11 06:47:30;;;;;;;6.70;3.90;;;7.60;99.90;;;;;;4167042;28;20549;-52
2021/03/11 06:49:32;;;;;;;5.13;2.67;;;7.60;99.90;;;;;;4167742;28;20498;-52
2021/03/11 06:51:35;;;;;;;6.33;3.20;;;7.70;99.90;;;;;;4168091;28;20480;-52
2021/03/11 06:53:54;;;;;;;5.97;3.07;;;7.70;99.90;;;;;;4167377;28;20483;-52
2021/03/11 06:56:18;;;;;;;7.83;3.20;;;7.80;99.90;;;;;;4166682;28;20486;-52
2021/03/11 06:58:21;;;;;;;6.90;3.43;;;7.80;99.90;;;;;;4167534;28;20515;-52
2021/03/11 07:00:24;;;;;;;5.33;3.00;;;7.80;99.90;;;;;;4167023;28;20474;-52
2021/03/11 07:02:27;;;;;;;5.67;3.33;;;7.90;99.90;;;;;;4167077;28;20477;-51
2021/03/11 07:04:28;;;;;;;6.17;3.17;;;7.90;99.90;;;;;;4167286;28;20481;-53
2021/03/11 07:06:33;;;;;;;5.23;3.30;;;7.80;99.90;;;;;;4166821;28;20541;-53
2021/03/11 07:08:35;;;;;;;5.60;3.27;;;7.80;99.90;;;;;;4167168;28;21270;-54
2021/03/11 07:10:37;;;;;;;6.37;3.20;;;7.70;99.90;;;;;;4167057;28;20508;-53
2021/03/11 07:12:52;;;;;;;5.47;3.60;;;7.60;99.90;;;;;;4167901;28;20564;-54
2021/03/11 07:14:53;;;;;;;7.17;3.47;;;7.50;99.90;;;;;;4167422;28;20466;-53
2021/03/11 07:16:54;;;;;;;6.43;3.60;;;7.50;99.90;;;;;;4167752;28;20475;-53
2021/03/11 07:19:12;;;;;;;7.50;3.80;;;7.40;99.90;;;;;;4167793;28;20576;-54
2021/03/11 07:21:36;;;;;;;5.30;3.40;;;7.40;99.90;;;;;;4166764;28;20468;-54
2021/03/11 07:23:49;;;;;;;6.63;3.23;;;7.30;99.90;;;;;;4167463;28;20485;-54
2021/03/11 07:25:51;;;;;;;4.90;2.97;;;7.30;99.90;;;;;;4167987;28;21002;-55
2021/03/11 07:27:52;;;;;;;5.70;3.23;;;7.20;99.90;;;;;;4166651;28;20472;-56
2021/03/11 07:30:02;;;;;;;7.63;3.50;;;7.20;99.90;;;;;;4166907;28;20474;-55
2021/03/11 07:32:04;;;;;;;7.40;3.80;;;7.20;99.90;;;;;;4167005;28;20476;-55
2021/03/11 07:34:06;;;;;;;5.23;3.20;;;7.20;99.90;;;;;;4167041;28;20472;-56
2021/03/11 07:36:09;;;;;;;6.83;3.33;;;7.20;99.90;;;;;;4166505;28;20970;-57
2021/03/11 07:38:15;;;;;;;5.57;3.27;;;7.20;99.90;;;;;;4166871;28;20495;-57
2021/03/11 07:40:18;;;;;;;5.87;3.53;;;7.20;99.90;;;;;;4164627;28;20481;-57
2021/03/11 07:42:22;;;;;;;7.10;3.37;;;7.20;99.90;;;;;;4163201;28;20466;-57
2021/03/11 07:44:23;;;;;;;7.07;3.40;;;7.20;99.90;;;;;;4162177;28;20583;-58
2021/03/11 07:46:25;;;;;;;7.33;3.87;;;7.20;99.90;;;;;;4161230;28;20545;-59
2021/03/11 07:48:26;;;;;;;6.80;3.90;;;7.20;99.90;;;;;;4162043;28;20982;-59
2021/03/11 07:50:28;;;;;;;6.70;3.47;;;7.30;99.90;;;;;;4163012;28;20215;-59
2021/03/11 07:52:32;;;;;;;7.27;4.17;;;7.20;99.90;;;;;;4162900;28;20490;-59
2021/03/11 07:54:33;;;;;;;6.70;3.47;;;7.30;99.90;;;;;;4165657;28;20475;-61
2021/03/11 07:56:36;;;;;;;6.80;3.60;;;7.30;99.90;;;;;;4165265;28;20510;-59
2021/03/11 07:58:38;;;;;;;5.03;3.23;;;7.30;99.90;;;;;;4167281;28;20577;-59
2021/03/11 08:00:39;;;;;;;6.88;3.92;;;7.30;99.90;;;;;;4165135;28;20467;-58
2021/03/11 08:02:49;;;;;;;6.87;3.67;;;7.40;99.90;;;;;;4169815;28;20223;-59
2021/03/11 08:04:51;;;;;;;8.60;3.50;;;7.40;99.90;;;;;;4166327;28;20639;-58
2021/03/11 08:07:13;;;;;;;7.70;3.57;;;7.40;99.90;;;;;;4167965;28;20468;-59
2021/03/11 08:09:34;;;;;;;5.60;3.20;;;7.40;99.90;;;;;;4165426;28;20595;-59
2021/03/11 08:11:40;;;;;;;6.50;3.70;;;7.50;99.90;;;;;;4165414;28;20540;-59
2021/03/11 08:13:41;;;;;;;8.80;3.13;;;7.50;99.90;;;;;;4167506;28;20468;-59
2021/03/11 08:15:43;;;;;;;5.80;3.63;;;7.50;99.90;;;;;;4166195;28;20548;-59
2021/03/11 08:17:46;;;;;;;7.78;4.30;;;7.60;99.90;;;;;;4166657;28;20463;-59
2021/03/11 08:19:49;;;;;;;7.20;4.00;;;7.70;99.90;;;;;;4167687;28;20460;-59
2021/03/11 08:21:50;;;;;;;9.13;3.53;;;7.80;99.90;;;;;;4171075;28;20949;-59
2021/03/11 08:23:52;;;;;;;6.73;3.77;;;7.80;99.90;;;;;;4167505;28;20826;-59
2021/03/11 08:25:54;;;;;;;8.83;4.20;;;7.70;99.90;;;;;;4164893;28;20623;-59
2021/03/11 08:27:55;;;;;;;8.83;4.47;;;7.80;99.90;;;;;;4166564;28;20533;-59
2021/03/11 08:29:57;;;;;;;8.13;4.53;;;7.80;99.90;;;;;;4167295;28;21584;-59
2021/03/11 08:31:58;;;;;;;7.50;4.00;;;7.80;99.90;;;;;;4166771;28;21045;-59
2021/03/11 08:34:00;;;;;;;10.63;4.10;;;7.80;99.90;;;;;;4169767;28;20552;-59
2021/03/11 08:36:02;;;;;;;8.17;3.87;;;7.80;99.90;;;;;;4166728;28;20506;-60
2021/03/11 08:38:38;;;;;;;6.47;3.57;;;7.80;99.90;;;;;;4167212;28;20600;-62
2021/03/11 08:40:42;;;;;;;6.83;3.30;;;7.90;99.90;;;;;;4165516;28;20475;-59
2021/03/11 08:42:45;;;;;;;9.83;3.77;;;7.90;99.90;;;;;;4165487;28;20480;-59
2021/03/11 08:44:48;;;;;;;7.03;3.60;;;7.90;99.90;;;;;;4165867;28;20786;-59
2021/03/11 08:46:51;;;;;;;6.57;4.00;;;8.00;99.90;;;;;;4166189;28;20527;-59
2021/03/11 08:48:56;;;;;;;6.55;4.30;;;8.10;99.90;;;;;;4164390;28;20662;-59
2021/03/11 08:50:58;;;;;;;6.57;4.45;;;8.30;99.90;;;;;;4165632;28;21094;-59
2021/03/11 08:53:00;;;;;;;7.73;4.20;;;8.30;99.90;;;;;;4166733;28;20229;-60
2021/03/11 08:55:36;;;;;;;7.40;3.67;;;8.30;99.90;;;;;;4165971;28;20485;-60
2021/03/11 08:57:43;;;;;;;7.23;3.90;;;8.30;99.90;;;;;;4165425;28;20932;-59
2021/03/11 08:59:47;;;;;;;6.87;4.27;;;8.30;99.90;;;;;;4165306;28;20469;-59
2021/03/11 09:01:50;;;;;;;5.87;3.40;;;8.30;99.90;;;;;;4168187;28;20463;-59
2021/03/11 09:03:51;;;;;;;7.13;3.30;;;8.30;99.90;;;;;;4168502;28;20483;-61
2021/03/11 09:05:53;;;;;;;4.70;2.97;;;8.30;99.90;;;;;;4166896;28;20468;-59
2021/03/11 09:08:10;;;;;;;6.73;3.13;;;8.30;99.90;;;;;;4165755;28;20464;-60
2021/03/11 09:10:19;;;;;;;6.32;4.00;;;8.30;99.90;;;;;;4162694;28;20453;-60
2021/03/11 09:12:25;;;;;;;5.83;3.40;;;8.40;99.90;;;;;;4165265;28;20224;-60
2021/03/11 09:14:27;;;;;;;5.20;3.07;;;8.40;99.90;;;;;;4165048;28;20550;-60
2021/03/11 09:16:29;;;;;;;7.03;3.20;;;8.40;99.90;;;;;;4165125;28;20539;-61
2021/03/11 09:18:31;;;;;;;5.63;3.70;;;8.40;99.90;;;;;;4164558;28;20704;-60
2021/03/11 09:20:32;;;;;;;3.27;2.47;;;8.50;99.90;;;;;;4165894;28;20222;-59
2021/03/11 09:22:36;;;;;;;6.13;3.10;;;8.60;99.90;;;;;;4165774;28;20493;-59
2021/03/11 09:24:37;;;;;;;5.10;2.90;;;8.60;99.90;;;;;;4164933;28;20468;-59
2021/03/11 09:26:38;;;;;;;6.00;3.50;;;8.70;99.90;;;;;;4164247;28;20795;-61
2021/03/11 09:28:40;;;;;;;7.50;3.77;;;8.80;99.90;;;;;;4165727;28;20219;-64
2021/03/11 09:30:42;;;;;;;6.77;3.90;;;8.80;99.90;;;;;;4164670;28;20457;-61
2021/03/11 09:32:44;;;;;;;6.30;3.80;;;8.90;99.90;;;;;;4164814;28;20222;-61
2021/03/11 09:34:57;;;;;;;5.30;2.90;;;9.00;99.90;;;;;;4164487;28;20222;-60
2021/03/11 09:36:58;;;;;;;4.47;2.77;;;9.10;99.90;;;;;;4164581;28;20557;-60
2021/03/11 09:39:01;;;;;;;5.03;2.80;;;9.20;99.90;;;;;;4163922;28;20234;-62
2021/03/11 09:41:03;;;;;;;4.70;2.83;;;9.30;99.90;;;;;;4165165;28;20465;-60
2021/03/11 09:43:14;;;;;;;5.87;3.00;;;9.50;99.90;;;;;;4166758;28;20259;-60
2021/03/11 09:45:30;;;;;;;5.20;2.70;;;9.60;99.90;;;;;;4167563;28;20233;-60
2021/03/11 09:47:32;;;;;;;5.50;3.17;;;9.70;99.90;;;;;;4169004;28;20550;-60
2021/03/11 09:49:33;;;;;;;4.90;2.87;;;9.90;99.90;;;;;;4165624;28;20211;-61
2021/03/11 09:51:35;;;;;;;4.33;2.80;;;10.00;99.90;;;;;;4164463;28;20252;-60
2021/03/11 09:53:40;;;;;;;4.13;3.00;;;10.20;99.90;;;;;;4164478;28;20227;-60
2021/03/11 09:55:41;;;;;;;5.83;2.90;;;10.40;99.90;;;;;;4166068;28;20260;-61
2021/03/11 09:57:43;;;;;;;5.93;3.13;;;10.50;99.90;;;;;;4164964;28;20219;-61
2021/03/11 09:59:44;;;;;;;5.50;3.43;;;10.50;99.90;;;;;;4165597;28;20207;-60
2021/03/11 10:01:46;;;;;;;3.23;2.30;;;10.50;99.90;;;;;;4165050;28;20218;-60
2021/03/11 10:03:48;;;;;;;4.20;2.60;;;10.60;99.90;;;;;;4164209;28;20235;-60
2021/03/11 10:05:55;;;;;;;4.00;2.50;;;10.70;99.90;;;;;;4163369;28;20208;-60
2021/03/11 10:07:57;;;;;;;4.90;2.50;;;10.70;99.90;;;;;;4162962;28;20216;-59
2021/03/11 10:09:59;;;;;;;4.07;2.27;;;10.90;99.90;;;;;;4162769;28;20323;-60
2021/03/11 10:12:00;;;;;;;3.85;2.67;;;11.10;99.90;;;;;;4163578;28;20455;-60
2021/03/11 10:14:02;;;;;;;2.93;2.23;;;11.30;99.90;;;;;;4163507;28;20275;-59
2021/03/11 10:16:04;;;;;;;3.67;2.40;;;11.20;99.90;;;;;;4163201;28;20215;-60
2021/03/11 10:18:09;;;;;;;4.60;2.70;;;11.00;99.90;;;;;;4163896;28;20401;-60
2021/03/11 10:20:26;;;;;;;3.87;2.90;;;10.80;99.90;;;;;;4162837;28;20226;-59
2021/03/11 10:22:27;;;;;;;4.87;2.80;;;10.60;99.90;;;;;;4162580;28;20220;-59
2021/03/11 10:24:38;;;;;;;4.37;2.70;;;10.40;99.90;;;;;;4165055;28;20554;-59
2021/03/11 10:26:40;;;;;;;5.07;2.97;;;10.30;99.90;;;;;;4162949;28;20247;-59
2021/03/11 10:28:43;;;;;;;4.53;3.03;;;10.10;99.90;;;;;;4163737;28;20277;-59
2021/03/11 10:30:44;;;;;;;5.03;3.50;;;10.00;99.90;;;;;;4161808;28;20514;-62
2021/03/11 10:32:52;;;;;;;6.63;3.47;;;9.90;99.90;;;;;;4161716;28;20221;-60
2021/03/11 10:34:54;;;;;;;5.60;3.78;;;9.90;99.90;;;;;;4161282;28;20459;-60
2021/03/11 10:36:56;;;;;;;5.70;3.80;;;9.80;99.90;;;;;;4161828;28;20450;-59
2021/03/11 10:39:13;;;;;;;5.43;3.40;;;10.00;99.90;;;;;;4164444;28;22145;-59
2021/03/11 10:41:17;;;;;;;10.57;3.23;;;10.00;99.90;;;;;;4164134;28;20575;-61
2021/03/11 10:43:20;;;;;;;5.23;3.30;;;10.00;99.90;;;;;;4163891;28;20211;-63
2021/03/11 10:45:24;;;;;;;4.47;2.97;;;10.10;99.90;;;;;;4164319;28;20218;-60